DLH1PM EDDF-EDDS
Flight info
| Callsign | DLH1PM |
|---|---|
| Flight time | 0h 21m |
| Altitude | 15000 |
| Route | ANEKI2L/18 ANEKI Y163 NEKLO Y171 INKAM N850 KRH T128 BADSO BADSO2A |
| Aircraft | A320/M-SDE2E3FGIJ1LORWXYZ/HB1 |
Departure
| Time | 2026-05-07 08:21 |
|---|---|
| Airport | Frankfurt Main Airport (EDDF) |
Arrival
| Time | 2026-05-07 08:43 |
|---|---|
| Airport | Stuttgart Airport (EDDS) |
| Time | Latitude | Longitude | Altitude | Speed | Heading |
|---|---|---|---|---|---|
| 2026-05-07 08:03 | 50.03577 | 8.53664 | 231 ft | 0 kts | 159° |
| 2026-05-07 08:18 | 50.03542 | 8.53684 | 339 ft | 10 kts | 160° |
| 2026-05-07 08:18 | 50.03495 | 8.53632 | 339 ft | 9 kts | 244° |
| 2026-05-07 08:19 | 50.03464 | 8.53503 | 336 ft | 15 kts | 250° |
| 2026-05-07 08:19 | 50.03425 | 8.53342 | 336 ft | 17 kts | 249° |
| 2026-05-07 08:19 | 50.03378 | 8.53148 | 336 ft | 21 kts | 249° |
| 2026-05-07 08:19 | 50.03325 | 8.52924 | 333 ft | 22 kts | 250° |
| 2026-05-07 08:20 | 50.03277 | 8.52723 | 333 ft | 18 kts | 246° |
| 2026-05-07 08:20 | 50.03183 | 8.52600 | 334 ft | 19 kts | 195° |
| 2026-05-07 08:20 | 50.03020 | 8.52597 | 334 ft | 39 kts | 180° |
| 2026-05-07 08:20 | 50.02465 | 8.52603 | 335 ft | 116 kts | 179° |
| 2026-05-07 08:21 | 50.01449 | 8.52615 | 389 ft | 168 kts | 180° |
| 2026-05-07 08:21 | 50.00251 | 8.52637 | 1085 ft | 176 kts | 181° |
| 2026-05-07 08:21 | 49.99004 | 8.52696 | 1868 ft | 185 kts | 180° |
| 2026-05-07 08:21 | 49.97639 | 8.52786 | 2310 ft | 207 kts | 179° |
| 2026-05-07 08:22 | 49.96125 | 8.52890 | 2734 ft | 231 kts | 179° |
| 2026-05-07 08:22 | 49.94477 | 8.53006 | 3466 ft | 244 kts | 179° |
| 2026-05-07 08:22 | 49.92696 | 8.53127 | 4118 ft | 264 kts | 179° |
| 2026-05-07 08:22 | 49.90840 | 8.53259 | 5063 ft | 270 kts | 179° |
| 2026-05-07 08:23 | 49.88972 | 8.53394 | 6105 ft | 273 kts | 179° |
| 2026-05-07 08:23 | 49.87062 | 8.53530 | 7115 ft | 276 kts | 180° |
| 2026-05-07 08:23 | 49.85105 | 8.53667 | 8142 ft | 280 kts | 180° |
| 2026-05-07 08:23 | 49.83169 | 8.53801 | 9117 ft | 284 kts | 180° |
| 2026-05-07 08:24 | 49.81183 | 8.53939 | 10077 ft | 288 kts | 180° |
| 2026-05-07 08:24 | 49.79172 | 8.54078 | 10975 ft | 292 kts | 180° |
| 2026-05-07 08:24 | 49.77127 | 8.54018 | 11747 ft | 300 kts | 187° |
| 2026-05-07 08:24 | 49.74963 | 8.53728 | 12114 ft | 322 kts | 187° |
| 2026-05-07 08:25 | 49.72694 | 8.53419 | 12786 ft | 332 kts | 187° |
| 2026-05-07 08:25 | 49.70366 | 8.53103 | 13600 ft | 338 kts | 186° |
| 2026-05-07 08:25 | 49.68008 | 8.52789 | 14351 ft | 343 kts | 186° |
| 2026-05-07 08:25 | 49.65611 | 8.52521 | 14808 ft | 348 kts | 181° |
| 2026-05-07 08:26 | 49.61097 | 8.54913 | 14997 ft | 362 kts | 142° |
| 2026-05-07 08:26 | 49.59100 | 8.57403 | 14997 ft | 374 kts | 141° |
| 2026-05-07 08:26 | 49.57084 | 8.59964 | 14999 ft | 376 kts | 141° |
| 2026-05-07 08:27 | 49.55067 | 8.62542 | 15000 ft | 377 kts | 141° |
| 2026-05-07 08:27 | 49.53050 | 8.65113 | 15000 ft | 377 kts | 141° |
| 2026-05-07 08:27 | 49.51026 | 8.67685 | 14999 ft | 377 kts | 141° |
| 2026-05-07 08:27 | 49.48997 | 8.70251 | 14996 ft | 377 kts | 141° |
| 2026-05-07 08:28 | 49.46971 | 8.72807 | 14991 ft | 377 kts | 141° |
| 2026-05-07 08:28 | 49.44940 | 8.75360 | 14992 ft | 377 kts | 141° |
| 2026-05-07 08:28 | 49.42901 | 8.77916 | 14989 ft | 377 kts | 141° |
| 2026-05-07 08:28 | 49.40896 | 8.80427 | 14985 ft | 377 kts | 141° |
| 2026-05-07 08:29 | 49.38864 | 8.82972 | 14986 ft | 377 kts | 141° |
| 2026-05-07 08:29 | 49.36834 | 8.85514 | 14986 ft | 376 kts | 141° |
| 2026-05-07 08:29 | 49.34807 | 8.88051 | 14987 ft | 376 kts | 141° |
| 2026-05-07 08:29 | 49.32781 | 8.90585 | 14986 ft | 376 kts | 141° |
| 2026-05-07 08:30 | 49.30752 | 8.93118 | 14980 ft | 376 kts | 142° |
| 2026-05-07 08:30 | 49.28722 | 8.95650 | 14976 ft | 376 kts | 142° |
| 2026-05-07 08:30 | 49.26690 | 8.98184 | 14975 ft | 376 kts | 142° |
| 2026-05-07 08:30 | 49.24670 | 9.00700 | 14732 ft | 370 kts | 142° |
| 2026-05-07 08:31 | 49.22709 | 9.03139 | 14607 ft | 355 kts | 142° |
| 2026-05-07 08:31 | 49.20829 | 9.05473 | 14477 ft | 343 kts | 142° |
| 2026-05-07 08:31 | 49.19002 | 9.07741 | 14237 ft | 334 kts | 142° |
| 2026-05-07 08:31 | 49.17216 | 9.09955 | 13997 ft | 327 kts | 142° |
| 2026-05-07 08:32 | 49.15466 | 9.12124 | 13748 ft | 320 kts | 143° |
| 2026-05-07 08:32 | 49.13754 | 9.14242 | 13483 ft | 314 kts | 143° |
| 2026-05-07 08:32 | 49.12091 | 9.16297 | 13239 ft | 308 kts | 143° |
| 2026-05-07 08:32 | 49.10434 | 9.18345 | 12891 ft | 305 kts | 143° |
| 2026-05-07 08:33 | 49.08790 | 9.20374 | 12517 ft | 304 kts | 143° |
| 2026-05-07 08:33 | 49.07153 | 9.22391 | 12136 ft | 302 kts | 143° |
| 2026-05-07 08:33 | 49.05522 | 9.24400 | 11753 ft | 295 kts | 143° |
| 2026-05-07 08:33 | 49.03959 | 9.26325 | 11388 ft | 283 kts | 143° |
| 2026-05-07 08:34 | 49.02408 | 9.28081 | 10922 ft | 274 kts | 155° |
| 2026-05-07 08:34 | 49.00683 | 9.29197 | 10389 ft | 268 kts | 161° |
| 2026-05-07 08:34 | 48.98950 | 9.30236 | 9823 ft | 266 kts | 161° |
| 2026-05-07 08:34 | 48.97232 | 9.31266 | 9223 ft | 264 kts | 161° |
| 2026-05-07 08:35 | 48.95524 | 9.32286 | 8605 ft | 262 kts | 161° |
| 2026-05-07 08:35 | 48.93830 | 9.33294 | 8095 ft | 261 kts | 161° |
| 2026-05-07 08:35 | 48.92142 | 9.34297 | 7530 ft | 259 kts | 162° |
| 2026-05-07 08:35 | 48.90500 | 9.35270 | 6944 ft | 257 kts | 161° |
| 2026-05-07 08:36 | 48.88817 | 9.36270 | 6357 ft | 255 kts | 161° |
| 2026-05-07 08:36 | 48.87214 | 9.37224 | 6203 ft | 248 kts | 161° |
| 2026-05-07 08:36 | 48.85613 | 9.38173 | 6053 ft | 245 kts | 161° |
| 2026-05-07 08:36 | 48.84027 | 9.39115 | 5940 ft | 245 kts | 161° |
| 2026-05-07 08:37 | 48.82463 | 9.40044 | 5776 ft | 235 kts | 161° |
| 2026-05-07 08:37 | 48.80973 | 9.40927 | 5497 ft | 225 kts | 162° |
| 2026-05-07 08:37 | 48.79527 | 9.41781 | 5199 ft | 222 kts | 162° |
| 2026-05-07 08:37 | 48.78112 | 9.42616 | 4932 ft | 212 kts | 162° |
| 2026-05-07 08:38 | 48.76799 | 9.43395 | 4691 ft | 196 kts | 162° |
| 2026-05-07 08:38 | 48.75557 | 9.44132 | 4356 ft | 189 kts | 162° |
| 2026-05-07 08:38 | 48.74313 | 9.44510 | 4074 ft | 180 kts | 190° |
| 2026-05-07 08:38 | 48.73261 | 9.43716 | 3818 ft | 165 kts | 230° |
| 2026-05-07 08:39 | 48.72752 | 9.42232 | 3643 ft | 158 kts | 256° |
| 2026-05-07 08:39 | 48.72458 | 9.40642 | 3441 ft | 155 kts | 256° |
| 2026-05-07 08:39 | 48.72164 | 9.39073 | 3238 ft | 153 kts | 256° |
| 2026-05-07 08:39 | 48.71875 | 9.37544 | 2990 ft | 148 kts | 255° |
| 2026-05-07 08:40 | 48.71608 | 9.36090 | 2808 ft | 137 kts | 256° |
| 2026-05-07 08:40 | 48.71358 | 9.34746 | 2600 ft | 131 kts | 257° |
| 2026-05-07 08:40 | 48.71115 | 9.33445 | 2461 ft | 126 kts | 255° |
| 2026-05-07 08:40 | 48.70869 | 9.32160 | 2291 ft | 127 kts | 253° |
| 2026-05-07 08:41 | 48.70628 | 9.30885 | 2121 ft | 127 kts | 255° |
| 2026-05-07 08:41 | 48.70384 | 9.29600 | 1968 ft | 128 kts | 254° |
| 2026-05-07 08:41 | 48.70138 | 9.28272 | 1805 ft | 132 kts | 253° |
| 2026-05-07 08:41 | 48.69883 | 9.26922 | 1621 ft | 134 kts | 253° |
| 2026-05-07 08:42 | 48.69619 | 9.25551 | 1459 ft | 138 kts | 253° |
| 2026-05-07 08:42 | 48.69356 | 9.24163 | 1329 ft | 134 kts | 254° |
| 2026-05-07 08:42 | 48.69126 | 9.22957 | 1287 ft | 99 kts | 254° |
| 2026-05-07 08:42 | 48.68989 | 9.22212 | 1290 ft | 51 kts | 254° |
| 2026-05-07 08:43 | 48.68902 | 9.21746 | 1289 ft | 42 kts | 254° |
| 2026-05-07 08:43 | 48.68825 | 9.21346 | 1287 ft | 37 kts | 254° |
| 2026-05-07 08:43 | 48.68759 | 9.20994 | 1290 ft | 33 kts | 254° |
| 2026-05-07 08:43 | 48.68700 | 9.20675 | 1287 ft | 30 kts | 254° |
| 2026-05-07 08:44 | 48.68677 | 9.20376 | 1285 ft | 27 kts | 275° |
| 2026-05-07 08:44 | 48.68705 | 9.20175 | 1287 ft | 15 kts | 284° |
| 2026-05-07 08:44 | 48.68749 | 9.20025 | 1285 ft | 17 kts | 313° |
| 2026-05-07 08:44 | 48.68820 | 9.19912 | 1288 ft | 12 kts | 321° |
| 2026-05-07 08:45 | 48.68887 | 9.19866 | 1286 ft | 9 kts | 317° |
| 2026-05-07 08:45 | 48.68882 | 9.19773 | 1286 ft | 10 kts | 254° |
| 2026-05-07 08:45 | 48.68872 | 9.19686 | 1285 ft | 6 kts | 288° |
| 2026-05-07 08:45 | 48.68908 | 9.19660 | 1286 ft | 5 kts | 344° |
| 2026-05-07 08:46 | 48.68935 | 9.19648 | 1285 ft | 0 kts | 344° |